sensor_id;sensor_type;location;lat;lon;timestamp;P1;durP1;ratioP1;P2;durP2;ratioP2
55150;SDS011;41041;43.162;20.538;2023-04-24T01:02:00;9.02;;;5.90;;
55150;SDS011;41041;43.162;20.538;2023-04-24T01:04:26;11.52;;;6.18;;
55150;SDS011;41041;43.162;20.538;2023-04-24T01:06:57;12.13;;;6.03;;
55150;SDS011;41041;43.162;20.538;2023-04-24T01:09:23;9.63;;;5.68;;
55150;SDS011;41041;43.162;20.538;2023-04-24T01:11:50;8.68;;;5.18;;
55150;SDS011;41041;43.162;20.538;2023-04-24T01:14:16;7.68;;;4.93;;
55150;SDS011;41041;43.162;20.538;2023-04-24T01:16:43;10.07;;;5.75;;
55150;SDS011;41041;43.162;20.538;2023-04-24T01:19:09;15.38;;;7.88;;
55150;SDS011;41041;43.162;20.538;2023-04-24T01:21:37;12.02;;;6.65;;
55150;SDS011;41041;43.162;20.538;2023-04-24T01:24:04;15.18;;;7.53;;
55150;SDS011;41041;43.162;20.538;2023-04-24T01:26:30;13.93;;;6.55;;
55150;SDS011;41041;43.162;20.538;2023-04-24T01:28:56;7.30;;;4.60;;
55150;SDS011;41041;43.162;20.538;2023-04-24T01:31:23;7.43;;;5.00;;
55150;SDS011;41041;43.162;20.538;2023-04-24T01:33:49;9.45;;;4.25;;
55150;SDS011;41041;43.162;20.538;2023-04-24T01:36:15;10.70;;;5.85;;
55150;SDS011;41041;43.162;20.538;2023-04-24T01:38:42;8.80;;;4.82;;
55150;SDS011;41041;43.162;20.538;2023-04-24T01:41:08;8.93;;;5.03;;
55150;SDS011;41041;43.162;20.538;2023-04-24T01:43:34;11.40;;;5.75;;
55150;SDS011;41041;43.162;20.538;2023-04-24T01:46:00;13.43;;;6.10;;
55150;SDS011;41041;43.162;20.538;2023-04-24T01:48:26;9.60;;;5.75;;
55150;SDS011;41041;43.162;20.538;2023-04-24T01:50:53;8.40;;;4.78;;
55150;SDS011;41041;43.162;20.538;2023-04-24T01:53:19;7.70;;;4.20;;
55150;SDS011;41041;43.162;20.538;2023-04-24T01:55:45;5.88;;;3.55;;
55150;SDS011;41041;43.162;20.538;2023-04-24T01:58:11;9.07;;;4.00;;
55150;SDS011;41041;43.162;20.538;2023-04-24T02:00:37;8.77;;;4.85;;
55150;SDS011;41041;43.162;20.538;2023-04-24T02:03:03;8.48;;;5.20;;
55150;SDS011;41041;43.162;20.538;2023-04-24T02:05:29;8.05;;;4.80;;
55150;SDS011;41041;43.162;20.538;2023-04-24T02:07:57;6.10;;;4.25;;
55150;SDS011;41041;43.162;20.538;2023-04-24T02:10:23;6.85;;;4.68;;
55150;SDS011;41041;43.162;20.538;2023-04-24T02:12:51;9.18;;;5.00;;
55150;SDS011;41041;43.162;20.538;2023-04-24T02:15:17;5.68;;;3.90;;
55150;SDS011;41041;43.162;20.538;2023-04-24T02:17:43;6.63;;;4.03;;
55150;SDS011;41041;43.162;20.538;2023-04-24T02:23:02;5.25;;;3.55;;
55150;SDS011;41041;43.162;20.538;2023-04-24T02:25:28;6.10;;;3.75;;
55150;SDS011;41041;43.162;20.538;2023-04-24T02:28:01;7.13;;;4.22;;
55150;SDS011;41041;43.162;20.538;2023-04-24T02:30:28;7.00;;;4.72;;
55150;SDS011;41041;43.162;20.538;2023-04-24T02:32:54;9.88;;;4.65;;
55150;SDS011;41041;43.162;20.538;2023-04-24T02:35:20;7.30;;;4.55;;
55150;SDS011;41041;43.162;20.538;2023-04-24T02:37:46;6.43;;;4.15;;
55150;SDS011;41041;43.162;20.538;2023-04-24T02:40:12;6.82;;;4.20;;
55150;SDS011;41041;43.162;20.538;2023-04-24T02:42:38;6.50;;;3.80;;
55150;SDS011;41041;43.162;20.538;2023-04-24T02:45:05;10.38;;;3.60;;
55150;SDS011;41041;43.162;20.538;2023-04-24T02:47:31;6.03;;;3.25;;
55150;SDS011;41041;43.162;20.538;2023-04-24T02:49:57;8.75;;;4.55;;
55150;SDS011;41041;43.162;20.538;2023-04-24T02:52:23;7.40;;;4.35;;
55150;SDS011;41041;43.162;20.538;2023-04-24T02:54:49;18.92;;;4.53;;
55150;SDS011;41041;43.162;20.538;2023-04-24T02:57:15;13.10;;;4.40;;
55150;SDS011;41041;43.162;20.538;2023-04-24T02:59:42;8.95;;;4.32;;
55150;SDS011;41041;43.162;20.538;2023-04-24T03:02:08;13.05;;;4.00;;
55150;SDS011;41041;43.162;20.538;2023-04-24T03:04:34;11.00;;;3.85;;
55150;SDS011;41041;43.162;20.538;2023-04-24T03:09:30;8.55;;;3.75;;
55150;SDS011;41041;43.162;20.538;2023-04-24T03:11:56;14.07;;;4.53;;
55150;SDS011;41041;43.162;20.538;2023-04-24T03:14:23;15.63;;;4.05;;
55150;SDS011;41041;43.162;20.538;2023-04-24T03:16:49;10.02;;;4.25;;
55150;SDS011;41041;43.162;20.538;2023-04-24T03:19:15;11.88;;;4.13;;
55150;SDS011;41041;43.162;20.538;2023-04-24T03:21:42;9.45;;;4.10;;
55150;SDS011;41041;43.162;20.538;2023-04-24T03:24:08;9.23;;;4.10;;
55150;SDS011;41041;43.162;20.538;2023-04-24T03:26:34;11.68;;;4.35;;
55150;SDS011;41041;43.162;20.538;2023-04-24T03:29:01;9.25;;;5.25;;
55150;SDS011;41041;43.162;20.538;2023-04-24T03:31:27;11.70;;;4.80;;
55150;SDS011;41041;43.162;20.538;2023-04-24T03:33:53;9.07;;;4.80;;
55150;SDS011;41041;43.162;20.538;2023-04-24T03:36:31;12.85;;;7.75;;
55150;SDS011;41041;43.162;20.538;2023-04-24T03:38:57;12.57;;;6.70;;
55150;SDS011;41041;43.162;20.538;2023-04-24T03:41:23;10.80;;;4.38;;
55150;SDS011;41041;43.162;20.538;2023-04-24T03:43:50;11.20;;;6.30;;
55150;SDS011;41041;43.162;20.538;2023-04-24T03:46:16;10.43;;;5.50;;
55150;SDS011;41041;43.162;20.538;2023-04-24T03:48:42;12.90;;;6.55;;
55150;SDS011;41041;43.162;20.538;2023-04-24T03:51:07;12.10;;;6.38;;
55150;SDS011;41041;43.162;20.538;2023-04-24T03:53:33;14.80;;;7.95;;
55150;SDS011;41041;43.162;20.538;2023-04-24T03:55:59;11.45;;;6.00;;
55150;SDS011;41041;43.162;20.538;2023-04-24T03:58:26;7.25;;;4.38;;
55150;SDS011;41041;43.162;20.538;2023-04-24T04:00:52;14.48;;;4.80;;
55150;SDS011;41041;43.162;20.538;2023-04-24T04:03:18;9.05;;;4.47;;
55150;SDS011;41041;43.162;20.538;2023-04-24T04:05:44;6.13;;;4.05;;
55150;SDS011;41041;43.162;20.538;2023-04-24T04:08:10;7.75;;;4.78;;
55150;SDS011;41041;43.162;20.538;2023-04-24T04:10:36;12.40;;;5.10;;
55150;SDS011;41041;43.162;20.538;2023-04-24T04:13:02;8.30;;;5.80;;
55150;SDS011;41041;43.162;20.538;2023-04-24T04:15:29;7.65;;;4.35;;
55150;SDS011;41041;43.162;20.538;2023-04-24T04:17:55;9.05;;;4.40;;
55150;SDS011;41041;43.162;20.538;2023-04-24T04:20:21;9.50;;;5.50;;
55150;SDS011;41041;43.162;20.538;2023-04-24T04:22:47;7.22;;;4.80;;
55150;SDS011;41041;43.162;20.538;2023-04-24T04:25:13;10.05;;;4.35;;
55150;SDS011;41041;43.162;20.538;2023-04-24T04:27:39;8.40;;;4.38;;
55150;SDS011;41041;43.162;20.538;2023-04-24T04:30:07;11.52;;;4.93;;
55150;SDS011;41041;43.162;20.538;2023-04-24T04:32:34;14.20;;;6.78;;
55150;SDS011;41041;43.162;20.538;2023-04-24T04:35:01;10.88;;;4.70;;
55150;SDS011;41041;43.162;20.538;2023-04-24T04:37:30;9.50;;;4.55;;
55150;SDS011;41041;43.162;20.538;2023-04-24T04:40:00;11.90;;;5.55;;
55150;SDS011;41041;43.162;20.538;2023-04-24T04:42:26;10.38;;;5.80;;
55150;SDS011;41041;43.162;20.538;2023-04-24T04:44:53;12.02;;;5.15;;
55150;SDS011;41041;43.162;20.538;2023-04-24T04:47:21;9.93;;;4.80;;
55150;SDS011;41041;43.162;20.538;2023-04-24T04:49:48;8.57;;;4.05;;
55150;SDS011;41041;43.162;20.538;2023-04-24T04:52:18;14.77;;;5.40;;
55150;SDS011;41041;43.162;20.538;2023-04-24T04:54:44;11.77;;;5.40;;
55150;SDS011;41041;43.162;20.538;2023-04-24T04:57:11;10.85;;;4.97;;
55150;SDS011;41041;43.162;20.538;2023-04-24T04:59:39;10.93;;;4.68;;
55150;SDS011;41041;43.162;20.538;2023-04-24T05:02:06;15.05;;;4.85;;
55150;SDS011;41041;43.162;20.538;2023-04-24T05:04:32;9.93;;;5.20;;
55150;SDS011;41041;43.162;20.538;2023-04-24T05:06:58;15.73;;;6.10;;
55150;SDS011;41041;43.162;20.538;2023-04-24T05:09:24;14.80;;;6.75;;
55150;SDS011;41041;43.162;20.538;2023-04-24T05:11:52;14.60;;;5.75;;
55150;SDS011;41041;43.162;20.538;2023-04-24T05:16:50;25.60;;;10.70;;
55150;SDS011;41041;43.162;20.538;2023-04-24T05:19:16;12.93;;;5.32;;
55150;SDS011;41041;43.162;20.538;2023-04-24T05:21:42;14.85;;;5.43;;
55150;SDS011;41041;43.162;20.538;2023-04-24T05:24:08;28.95;;;9.77;;
55150;SDS011;41041;43.162;20.538;2023-04-24T05:26:34;24.17;;;11.13;;
55150;SDS011;41041;43.162;20.538;2023-04-24T05:29:01;19.17;;;11.30;;
55150;SDS011;41041;43.162;20.538;2023-04-24T05:31:27;21.92;;;10.30;;
55150;SDS011;41041;43.162;20.538;2023-04-24T05:33:53;21.10;;;8.95;;
55150;SDS011;41041;43.162;20.538;2023-04-24T05:36:21;16.30;;;7.30;;
55150;SDS011;41041;43.162;20.538;2023-04-24T05:38:47;13.40;;;7.43;;
55150;SDS011;41041;43.162;20.538;2023-04-24T05:41:14;22.02;;;6.88;;
55150;SDS011;41041;43.162;20.538;2023-04-24T05:43:40;27.50;;;7.05;;
55150;SDS011;41041;43.162;20.538;2023-04-24T05:46:06;26.70;;;6.70;;
55150;SDS011;41041;43.162;20.538;2023-04-24T05:48:32;22.88;;;7.43;;
55150;SDS011;41041;43.162;20.538;2023-04-24T05:50:58;35.63;;;7.63;;
55150;SDS011;41041;43.162;20.538;2023-04-24T05:53:24;25.13;;;6.88;;
55150;SDS011;41041;43.162;20.538;2023-04-24T05:55:50;16.10;;;6.28;;
55150;SDS011;41041;43.162;20.538;2023-04-24T05:58:16;12.40;;;4.97;;
55150;SDS011;41041;43.162;20.538;2023-04-24T06:00:43;11.40;;;5.53;;
55150;SDS011;41041;43.162;20.538;2023-04-24T06:03:11;17.42;;;6.90;;
55150;SDS011;41041;43.162;20.538;2023-04-24T06:05:37;19.90;;;6.72;;
55150;SDS011;41041;43.162;20.538;2023-04-24T06:10:48;19.92;;;9.00;;
55150;SDS011;41041;43.162;20.538;2023-04-24T06:13:14;17.35;;;8.45;;
55150;SDS011;41041;43.162;20.538;2023-04-24T06:15:41;20.10;;;8.38;;
55150;SDS011;41041;43.162;20.538;2023-04-24T06:18:07;24.65;;;9.05;;
55150;SDS011;41041;43.162;20.538;2023-04-24T06:20:35;19.52;;;8.95;;
55150;SDS011;41041;43.162;20.538;2023-04-24T06:23:01;26.55;;;9.10;;
55150;SDS011;41041;43.162;20.538;2023-04-24T06:25:27;24.60;;;9.25;;
55150;SDS011;41041;43.162;20.538;2023-04-24T06:30:37;32.97;;;7.57;;
55150;SDS011;41041;43.162;20.538;2023-04-24T06:33:03;11.70;;;5.68;;
55150;SDS011;41041;43.162;20.538;2023-04-24T06:35:30;11.07;;;6.07;;
55150;SDS011;41041;43.162;20.538;2023-04-24T06:37:56;20.52;;;8.80;;
55150;SDS011;41041;43.162;20.538;2023-04-24T06:40:22;24.95;;;10.48;;
55150;SDS011;41041;43.162;20.538;2023-04-24T06:42:48;35.25;;;10.43;;
55150;SDS011;41041;43.162;20.538;2023-04-24T06:45:14;30.50;;;13.75;;
55150;SDS011;41041;43.162;20.538;2023-04-24T06:47:40;37.05;;;13.35;;
55150;SDS011;41041;43.162;20.538;2023-04-24T06:50:07;37.33;;;15.02;;
55150;SDS011;41041;43.162;20.538;2023-04-24T06:52:33;24.95;;;10.65;;
55150;SDS011;41041;43.162;20.538;2023-04-24T06:55:00;29.00;;;10.60;;
55150;SDS011;41041;43.162;20.538;2023-04-24T06:59:56;27.58;;;11.27;;
55150;SDS011;41041;43.162;20.538;2023-04-24T07:02:22;44.47;;;12.40;;
55150;SDS011;41041;43.162;20.538;2023-04-24T07:04:49;21.15;;;8.15;;
55150;SDS011;41041;43.162;20.538;2023-04-24T07:07:15;20.85;;;8.65;;
55150;SDS011;41041;43.162;20.538;2023-04-24T07:09:41;37.95;;;10.30;;
55150;SDS011;41041;43.162;20.538;2023-04-24T07:12:09;33.47;;;10.40;;
55150;SDS011;41041;43.162;20.538;2023-04-24T07:14:36;28.33;;;10.77;;
55150;SDS011;41041;43.162;20.538;2023-04-24T07:17:02;24.02;;;9.73;;
55150;SDS011;41041;43.162;20.538;2023-04-24T07:19:28;49.00;;;17.50;;
55150;SDS011;41041;43.162;20.538;2023-04-24T07:21:55;31.77;;;10.25;;
55150;SDS011;41041;43.162;20.538;2023-04-24T07:24:23;46.22;;;10.70;;
55150;SDS011;41041;43.162;20.538;2023-04-24T07:26:50;36.40;;;9.60;;
55150;SDS011;41041;43.162;20.538;2023-04-24T07:29:19;44.90;;;10.10;;
55150;SDS011;41041;43.162;20.538;2023-04-24T07:31:46;34.20;;;10.05;;
55150;SDS011;41041;43.162;20.538;2023-04-24T07:34:12;29.13;;;10.27;;
55150;SDS011;41041;43.162;20.538;2023-04-24T07:36:38;35.30;;;12.65;;
55150;SDS011;41041;43.162;20.538;2023-04-24T07:39:05;31.75;;;12.07;;
55150;SDS011;41041;43.162;20.538;2023-04-24T07:41:31;35.17;;;13.35;;
55150;SDS011;41041;43.162;20.538;2023-04-24T07:43:58;55.97;;;13.98;;
55150;SDS011;41041;43.162;20.538;2023-04-24T07:46:24;38.75;;;13.23;;
55150;SDS011;41041;43.162;20.538;2023-04-24T07:48:51;65.38;;;17.63;;
55150;SDS011;41041;43.162;20.538;2023-04-24T07:51:17;52.72;;;16.30;;
55150;SDS011;41041;43.162;20.538;2023-04-24T07:53:43;43.30;;;17.00;;
55150;SDS011;41041;43.162;20.538;2023-04-24T07:56:09;36.95;;;15.20;;
55150;SDS011;41041;43.162;20.538;2023-04-24T07:58:39;40.72;;;13.90;;
55150;SDS011;41041;43.162;20.538;2023-04-24T08:01:05;46.25;;;14.10;;
55150;SDS011;41041;43.162;20.538;2023-04-24T08:03:31;39.10;;;12.35;;
55150;SDS011;41041;43.162;20.538;2023-04-24T08:05:57;27.88;;;11.40;;
55150;SDS011;41041;43.162;20.538;2023-04-24T08:08:24;28.33;;;9.32;;
55150;SDS011;41041;43.162;20.538;2023-04-24T08:10:50;25.02;;;7.82;;
55150;SDS011;41041;43.162;20.538;2023-04-24T08:13:16;24.27;;;10.07;;
55150;SDS011;41041;43.162;20.538;2023-04-24T08:15:42;9.82;;;6.07;;
55150;SDS011;41041;43.162;20.538;2023-04-24T08:18:08;8.02;;;3.80;;
55150;SDS011;41041;43.162;20.538;2023-04-24T08:20:34;9.88;;;3.50;;
55150;SDS011;41041;43.162;20.538;2023-04-24T08:23:00;8.57;;;3.55;;
55150;SDS011;41041;43.162;20.538;2023-04-24T08:25:26;10.60;;;4.45;;
55150;SDS011;41041;43.162;20.538;2023-04-24T08:27:51;9.57;;;3.92;;
55150;SDS011;41041;43.162;20.538;2023-04-24T08:30:18;13.38;;;4.13;;
55150;SDS011;41041;43.162;20.538;2023-04-24T08:32:43;5.15;;;2.75;;
55150;SDS011;41041;43.162;20.538;2023-04-24T08:37:53;5.70;;;2.72;;
55150;SDS011;41041;43.162;20.538;2023-04-24T08:40:19;8.35;;;3.63;;
55150;SDS011;41041;43.162;20.538;2023-04-24T08:42:56;6.03;;;3.20;;
55150;SDS011;41041;43.162;20.538;2023-04-24T08:45:22;7.25;;;2.60;;
55150;SDS011;41041;43.162;20.538;2023-04-24T08:47:48;9.43;;;3.08;;
55150;SDS011;41041;43.162;20.538;2023-04-24T08:50:15;7.30;;;3.00;;
55150;SDS011;41041;43.162;20.538;2023-04-24T08:52:41;10.35;;;3.10;;
55150;SDS011;41041;43.162;20.538;2023-04-24T08:55:08;8.80;;;2.30;;
55150;SDS011;41041;43.162;20.538;2023-04-24T08:57:34;3.35;;;2.13;;
55150;SDS011;41041;43.162;20.538;2023-04-24T09:00:03;4.78;;;2.40;;
55150;SDS011;41041;43.162;20.538;2023-04-24T09:02:31;6.53;;;2.47;;
55150;SDS011;41041;43.162;20.538;2023-04-24T09:04:59;7.43;;;2.50;;
55150;SDS011;41041;43.162;20.538;2023-04-24T09:07:26;3.67;;;2.20;;
55150;SDS011;41041;43.162;20.538;2023-04-24T09:09:53;3.83;;;2.45;;
55150;SDS011;41041;43.162;20.538;2023-04-24T09:12:19;4.35;;;2.50;;
55150;SDS011;41041;43.162;20.538;2023-04-24T09:14:46;10.40;;;2.75;;
55150;SDS011;41041;43.162;20.538;2023-04-24T09:17:13;9.73;;;2.70;;
55150;SDS011;41041;43.162;20.538;2023-04-24T09:22:33;6.03;;;2.60;;
55150;SDS011;41041;43.162;20.538;2023-04-24T09:25:01;7.78;;;2.70;;
55150;SDS011;41041;43.162;20.538;2023-04-24T09:27:28;4.88;;;2.35;;
55150;SDS011;41041;43.162;20.538;2023-04-24T09:29:55;4.30;;;2.40;;
55150;SDS011;41041;43.162;20.538;2023-04-24T09:32:22;17.60;;;2.92;;
55150;SDS011;41041;43.162;20.538;2023-04-24T09:35:04;38.38;;;4.03;;
55150;SDS011;41041;43.162;20.538;2023-04-24T09:37:46;10.20;;;2.65;;
55150;SDS011;41041;43.162;20.538;2023-04-24T09:40:18;6.85;;;2.80;;
55150;SDS011;41041;43.162;20.538;2023-04-24T09:42:52;7.15;;;3.08;;
55150;SDS011;41041;43.162;20.538;2023-04-24T09:45:22;6.95;;;2.50;;
55150;SDS011;41041;43.162;20.538;2023-04-24T09:47:52;8.73;;;3.53;;
55150;SDS011;41041;43.162;20.538;2023-04-24T09:52:58;12.13;;;2.85;;
55150;SDS011;41041;43.162;20.538;2023-04-24T09:55:26;7.93;;;2.90;;
55150;SDS011;41041;43.162;20.538;2023-04-24T09:57:56;15.05;;;5.60;;
55150;SDS011;41041;43.162;20.538;2023-04-24T10:00:26;7.18;;;2.90;;
55150;SDS011;41041;43.162;20.538;2023-04-24T10:02:57;4.85;;;2.28;;
55150;SDS011;41041;43.162;20.538;2023-04-24T10:05:28;6.85;;;2.88;;
55150;SDS011;41041;43.162;20.538;2023-04-24T10:07:57;4.75;;;2.55;;
55150;SDS011;41041;43.162;20.538;2023-04-24T10:10:25;5.13;;;2.58;;
55150;SDS011;41041;43.162;20.538;2023-04-24T10:12:51;6.38;;;2.53;;
55150;SDS011;41041;43.162;20.538;2023-04-24T10:15:18;4.43;;;2.85;;
55150;SDS011;41041;43.162;20.538;2023-04-24T10:17:47;5.68;;;2.83;;
55150;SDS011;41041;43.162;20.538;2023-04-24T10:20:18;8.82;;;3.08;;
55150;SDS011;41041;43.162;20.538;2023-04-24T10:22:46;11.05;;;2.67;;
55150;SDS011;41041;43.162;20.538;2023-04-24T10:25:16;19.08;;;3.70;;
55150;SDS011;41041;43.162;20.538;2023-04-24T10:27:42;7.95;;;3.50;;
55150;SDS011;41041;43.162;20.538;2023-04-24T10:30:09;29.73;;;5.22;;
55150;SDS011;41041;43.162;20.538;2023-04-24T10:32:37;42.30;;;6.97;;
55150;SDS011;41041;43.162;20.538;2023-04-24T10:35:03;12.07;;;3.47;;
55150;SDS011;41041;43.162;20.538;2023-04-24T10:37:33;11.52;;;3.78;;
55150;SDS011;41041;43.162;20.538;2023-04-24T10:40:01;7.25;;;3.60;;
55150;SDS011;41041;43.162;20.538;2023-04-24T10:42:27;11.20;;;4.25;;
55150;SDS011;41041;43.162;20.538;2023-04-24T10:44:57;7.35;;;4.10;;
55150;SDS011;41041;43.162;20.538;2023-04-24T10:47:23;9.73;;;4.03;;
55150;SDS011;41041;43.162;20.538;2023-04-24T10:49:50;9.80;;;4.45;;
55150;SDS011;41041;43.162;20.538;2023-04-24T10:52:17;10.20;;;3.60;;
55150;SDS011;41041;43.162;20.538;2023-04-24T10:54:46;6.97;;;3.78;;
55150;SDS011;41041;43.162;20.538;2023-04-24T10:59:44;7.18;;;3.60;;
55150;SDS011;41041;43.162;20.538;2023-04-24T11:02:10;15.93;;;5.38;;
55150;SDS011;41041;43.162;20.538;2023-04-24T11:04:39;13.52;;;5.32;;
55150;SDS011;41041;43.162;20.538;2023-04-24T11:07:05;12.60;;;4.90;;
55150;SDS011;41041;43.162;20.538;2023-04-24T11:09:31;10.00;;;3.00;;
55150;SDS011;41041;43.162;20.538;2023-04-24T11:12:06;6.18;;;3.47;;
55150;SDS011;41041;43.162;20.538;2023-04-24T11:17:32;9.25;;;4.50;;
55150;SDS011;41041;43.162;20.538;2023-04-24T11:22:53;15.35;;;8.02;;
55150;SDS011;41041;43.162;20.538;2023-04-24T11:25:21;7.82;;;4.50;;
55150;SDS011;41041;43.162;20.538;2023-04-24T11:27:51;10.23;;;3.88;;
55150;SDS011;41041;43.162;20.538;2023-04-24T11:30:29;8.18;;;4.28;;
55150;SDS011;41041;43.162;20.538;2023-04-24T11:32:55;7.97;;;4.57;;
55150;SDS011;41041;43.162;20.538;2023-04-24T11:35:27;6.07;;;3.83;;
55150;SDS011;41041;43.162;20.538;2023-04-24T11:37:55;7.03;;;4.00;;
55150;SDS011;41041;43.162;20.538;2023-04-24T11:40:22;5.85;;;3.70;;
55150;SDS011;41041;43.162;20.538;2023-04-24T11:42:52;8.15;;;4.50;;
55150;SDS011;41041;43.162;20.538;2023-04-24T11:45:22;10.32;;;3.65;;
55150;SDS011;41041;43.162;20.538;2023-04-24T11:47:50;7.05;;;3.97;;
55150;SDS011;41041;43.162;20.538;2023-04-24T11:50:17;8.48;;;3.78;;
55150;SDS011;41041;43.162;20.538;2023-04-24T11:52:44;6.18;;;3.80;;
55150;SDS011;41041;43.162;20.538;2023-04-24T11:57:41;5.60;;;3.00;;
55150;SDS011;41041;43.162;20.538;2023-04-24T12:00:14;5.45;;;3.05;;
55150;SDS011;41041;43.162;20.538;2023-04-24T12:02:41;6.63;;;3.58;;
55150;SDS011;41041;43.162;20.538;2023-04-24T12:05:07;14.80;;;7.28;;
55150;SDS011;41041;43.162;20.538;2023-04-24T12:07:40;14.93;;;7.32;;
55150;SDS011;41041;43.162;20.538;2023-04-24T12:10:08;10.32;;;6.28;;
55150;SDS011;41041;43.162;20.538;2023-04-24T12:12:34;15.95;;;11.45;;
55150;SDS011;41041;43.162;20.538;2023-04-24T12:15:00;12.07;;;7.10;;
55150;SDS011;41041;43.162;20.538;2023-04-24T12:17:29;10.32;;;6.55;;
55150;SDS011;41041;43.162;20.538;2023-04-24T12:19:59;7.05;;;4.38;;
55150;SDS011;41041;43.162;20.538;2023-04-24T12:22:27;5.75;;;3.70;;
55150;SDS011;41041;43.162;20.538;2023-04-24T12:27:38;4.68;;;3.13;;
55150;SDS011;41041;43.162;20.538;2023-04-24T12:30:26;4.80;;;3.50;;
55150;SDS011;41041;43.162;20.538;2023-04-24T12:32:53;4.13;;;2.80;;
55150;SDS011;41041;43.162;20.538;2023-04-24T12:35:20;8.98;;;4.35;;
55150;SDS011;41041;43.162;20.538;2023-04-24T12:37:47;5.40;;;3.80;;
55150;SDS011;41041;43.162;20.538;2023-04-24T12:40:16;4.75;;;3.65;;
55150;SDS011;41041;43.162;20.538;2023-04-24T12:42:46;6.03;;;3.45;;
55150;SDS011;41041;43.162;20.538;2023-04-24T12:45:13;6.20;;;3.83;;
55150;SDS011;41041;43.162;20.538;2023-04-24T12:47:40;5.30;;;2.83;;
55150;SDS011;41041;43.162;20.538;2023-04-24T12:50:10;5.05;;;2.70;;
55150;SDS011;41041;43.162;20.538;2023-04-24T12:55:26;6.35;;;4.40;;
55150;SDS011;41041;43.162;20.538;2023-04-24T12:57:52;5.47;;;3.83;;
55150;SDS011;41041;43.162;20.538;2023-04-24T13:00:20;7.68;;;4.90;;
55150;SDS011;41041;43.162;20.538;2023-04-24T13:05:38;7.03;;;4.20;;
55150;SDS011;41041;43.162;20.538;2023-04-24T13:08:04;9.10;;;5.35;;
55150;SDS011;41041;43.162;20.538;2023-04-24T13:10:30;10.25;;;4.95;;
55150;SDS011;41041;43.162;20.538;2023-04-24T13:15:30;12.93;;;8.05;;
55150;SDS011;41041;43.162;20.538;2023-04-24T13:17:56;18.63;;;9.27;;
55150;SDS011;41041;43.162;20.538;2023-04-24T13:20:22;14.35;;;8.00;;
55150;SDS011;41041;43.162;20.538;2023-04-24T13:22:48;14.00;;;6.68;;
55150;SDS011;41041;43.162;20.538;2023-04-24T13:25:13;13.38;;;7.38;;
55150;SDS011;41041;43.162;20.538;2023-04-24T13:27:45;8.98;;;6.10;;
55150;SDS011;41041;43.162;20.538;2023-04-24T13:30:11;11.18;;;6.45;;
55150;SDS011;41041;43.162;20.538;2023-04-24T13:32:37;12.63;;;8.85;;
55150;SDS011;41041;43.162;20.538;2023-04-24T13:35:04;7.18;;;4.47;;
55150;SDS011;41041;43.162;20.538;2023-04-24T13:37:30;8.48;;;5.10;;
55150;SDS011;41041;43.162;20.538;2023-04-24T13:39:56;9.45;;;4.75;;
55150;SDS011;41041;43.162;20.538;2023-04-24T13:42:22;6.55;;;4.35;;
55150;SDS011;41041;43.162;20.538;2023-04-24T13:44:48;10.90;;;4.80;;
55150;SDS011;41041;43.162;20.538;2023-04-24T13:47:16;9.55;;;6.45;;
55150;SDS011;41041;43.162;20.538;2023-04-24T13:49:44;11.57;;;8.02;;
55150;SDS011;41041;43.162;20.538;2023-04-24T13:52:10;17.10;;;10.85;;
55150;SDS011;41041;43.162;20.538;2023-04-24T13:54:36;9.23;;;7.65;;
55150;SDS011;41041;43.162;20.538;2023-04-24T13:57:03;7.70;;;5.25;;
55150;SDS011;41041;43.162;20.538;2023-04-24T13:59:29;13.30;;;5.13;;
55150;SDS011;41041;43.162;20.538;2023-04-24T14:01:55;11.23;;;6.00;;
55150;SDS011;41041;43.162;20.538;2023-04-24T14:04:21;7.43;;;5.07;;
55150;SDS011;41041;43.162;20.538;2023-04-24T14:06:48;7.60;;;4.70;;
55150;SDS011;41041;43.162;20.538;2023-04-24T14:09:14;5.53;;;4.03;;
55150;SDS011;41041;43.162;20.538;2023-04-24T14:14:18;5.88;;;4.07;;
55150;SDS011;41041;43.162;20.538;2023-04-24T14:16:45;5.80;;;3.90;;
55150;SDS011;41041;43.162;20.538;2023-04-24T14:19:11;6.00;;;4.40;;
55150;SDS011;41041;43.162;20.538;2023-04-24T14:21:37;5.78;;;4.30;;
55150;SDS011;41041;43.162;20.538;2023-04-24T14:24:03;8.00;;;4.38;;
55150;SDS011;41041;43.162;20.538;2023-04-24T14:26:29;8.10;;;5.35;;
55150;SDS011;41041;43.162;20.538;2023-04-24T14:28:55;8.40;;;4.40;;
55150;SDS011;41041;43.162;20.538;2023-04-24T14:31:23;8.68;;;5.60;;
55150;SDS011;41041;43.162;20.538;2023-04-24T14:33:49;8.82;;;4.95;;
55150;SDS011;41041;43.162;20.538;2023-04-24T14:36:16;8.23;;;5.05;;
55150;SDS011;41041;43.162;20.538;2023-04-24T14:38:42;8.85;;;5.97;;
55150;SDS011;41041;43.162;20.538;2023-04-24T14:41:08;8.20;;;4.53;;
55150;SDS011;41041;43.162;20.538;2023-04-24T14:43:35;8.10;;;4.47;;
55150;SDS011;41041;43.162;20.538;2023-04-24T14:46:02;7.82;;;4.57;;
55150;SDS011;41041;43.162;20.538;2023-04-24T14:48:28;6.85;;;4.43;;
55150;SDS011;41041;43.162;20.538;2023-04-24T14:50:55;9.68;;;4.10;;
55150;SDS011;41041;43.162;20.538;2023-04-24T14:53:21;19.83;;;10.05;;
55150;SDS011;41041;43.162;20.538;2023-04-24T14:55:47;20.42;;;10.68;;
55150;SDS011;41041;43.162;20.538;2023-04-24T14:58:23;13.75;;;7.45;;
55150;SDS011;41041;43.162;20.538;2023-04-24T15:00:49;58.58;;;33.65;;
55150;SDS011;41041;43.162;20.538;2023-04-24T15:03:17;114.95;;;68.95;;
55150;SDS011;41041;43.162;20.538;2023-04-24T15:05:43;103.05;;;65.13;;
55150;SDS011;41041;43.162;20.538;2023-04-24T15:08:10;75.70;;;46.78;;
55150;SDS011;41041;43.162;20.538;2023-04-24T15:10:36;107.95;;;70.15;;
55150;SDS011;41041;43.162;20.538;2023-04-24T15:13:02;51.03;;;35.15;;
55150;SDS011;41041;43.162;20.538;2023-04-24T15:15:31;26.02;;;16.85;;
55150;SDS011;41041;43.162;20.538;2023-04-24T15:17:57;22.65;;;9.55;;
55150;SDS011;41041;43.162;20.538;2023-04-24T15:20:24;16.17;;;10.15;;
55150;SDS011;41041;43.162;20.538;2023-04-24T15:22:50;6.75;;;4.40;;
55150;SDS011;41041;43.162;20.538;2023-04-24T15:25:16;7.32;;;4.32;;
55150;SDS011;41041;43.162;20.538;2023-04-24T15:27:42;6.35;;;3.90;;
55150;SDS011;41041;43.162;20.538;2023-04-24T15:30:09;4.88;;;3.47;;
55150;SDS011;41041;43.162;20.538;2023-04-24T15:32:37;6.72;;;4.18;;
55150;SDS011;41041;43.162;20.538;2023-04-24T15:35:04;8.38;;;4.45;;
55150;SDS011;41041;43.162;20.538;2023-04-24T15:37:30;8.77;;;5.47;;
55150;SDS011;41041;43.162;20.538;2023-04-24T15:39:56;7.25;;;5.40;;
55150;SDS011;41041;43.162;20.538;2023-04-24T15:42:24;9.43;;;5.10;;
55150;SDS011;41041;43.162;20.538;2023-04-24T15:44:51;10.75;;;5.35;;
55150;SDS011;41041;43.162;20.538;2023-04-24T15:47:17;11.27;;;6.60;;
55150;SDS011;41041;43.162;20.538;2023-04-24T15:49:44;12.25;;;6.05;;
55150;SDS011;41041;43.162;20.538;2023-04-24T15:52:11;15.25;;;9.60;;
55150;SDS011;41041;43.162;20.538;2023-04-24T15:54:41;16.50;;;6.65;;
55150;SDS011;41041;43.162;20.538;2023-04-24T15:57:08;9.30;;;6.45;;
55150;SDS011;41041;43.162;20.538;2023-04-24T15:59:34;6.80;;;4.55;;
55150;SDS011;41041;43.162;20.538;2023-04-24T16:02:01;9.10;;;5.40;;
55150;SDS011;41041;43.162;20.538;2023-04-24T16:04:28;11.45;;;6.10;;
55150;SDS011;41041;43.162;20.538;2023-04-24T16:06:55;13.50;;;8.65;;
55150;SDS011;41041;43.162;20.538;2023-04-24T16:09:22;23.48;;;13.85;;
55150;SDS011;41041;43.162;20.538;2023-04-24T16:11:49;28.17;;;17.35;;
55150;SDS011;41041;43.162;20.538;2023-04-24T16:14:16;21.83;;;15.13;;